createdAt,value
2019-01-26T00:00:32.171Z,12.23
2019-01-26T00:03:02.227Z,10.53
2019-01-26T00:05:32.164Z,11.20
2019-01-26T00:08:02.143Z,11.63
2019-01-26T00:10:32.082Z,12.70
2019-01-26T00:13:02.160Z,11.87
2019-01-26T00:15:32.210Z,13.87
2019-01-26T00:18:02.331Z,12.73
2019-01-26T00:20:36.349Z,14.53
2019-01-26T00:23:04.074Z,15.30
2019-01-26T00:25:34.003Z,16.80
2019-01-26T00:28:04.085Z,16.57
2019-01-26T00:30:34.131Z,17.00
2019-01-26T00:33:04.323Z,17.10
2019-01-26T00:35:34.247Z,20.00
2019-01-26T00:38:04.330Z,18.87
2019-01-26T00:40:34.349Z,19.17
2019-01-26T00:43:04.368Z,23.07
2019-01-26T00:45:34.335Z,24.50
2019-01-26T00:48:04.405Z,22.20
2019-01-26T00:50:34.490Z,22.60
2019-01-26T00:53:04.507Z,23.97
2019-01-26T00:55:34.642Z,22.00
2019-01-26T00:58:04.847Z,22.27
2019-01-26T01:00:35.135Z,21.90
2019-01-26T01:03:05.287Z,21.83
2019-01-26T01:05:35.318Z,21.70
2019-01-26T01:08:05.624Z,21.20
2019-01-26T01:10:35.717Z,20.33
2019-01-26T01:13:05.998Z,19.00
2019-01-26T01:15:36.100Z,19.57
2019-01-26T01:18:06.138Z,19.80
2019-01-26T01:20:36.104Z,20.37
2019-01-26T01:23:06.220Z,21.40
2019-01-26T01:25:36.293Z,21.60
2019-01-26T01:28:06.491Z,20.10
2019-01-26T01:30:36.645Z,18.80
2019-01-26T01:33:06.674Z,17.43
2019-01-26T01:35:36.624Z,12.67
2019-01-26T01:38:06.558Z,11.13
2019-01-26T01:40:36.656Z,9.00
2019-01-26T01:43:06.738Z,9.03
2019-01-26T01:45:36.730Z,9.53
2019-01-26T01:48:07.266Z,10.87
2019-01-26T01:50:37.355Z,15.37
2019-01-26T01:53:07.363Z,11.20
2019-01-26T01:55:37.323Z,9.80
2019-01-26T01:58:07.411Z,11.17
2019-01-26T02:00:37.757Z,11.93
2019-01-26T02:03:07.674Z,12.13
2019-01-26T02:05:37.707Z,11.53
2019-01-26T02:08:07.652Z,11.40
2019-01-26T02:10:37.604Z,11.13
2019-01-26T02:13:07.575Z,9.70
2019-01-26T02:15:37.518Z,11.37
2019-01-26T02:18:07.570Z,9.87
2019-01-26T02:20:37.605Z,8.33
2019-01-26T02:23:07.574Z,6.20
2019-01-26T02:25:37.496Z,6.50
2019-01-26T02:28:07.468Z,7.43
2019-01-26T02:30:37.404Z,7.30
2019-01-26T02:33:07.371Z,7.50
2019-01-26T02:35:37.271Z,6.97
2019-01-26T02:38:07.334Z,8.37
2019-01-26T02:40:37.282Z,9.90
2019-01-26T02:43:07.246Z,8.80
2019-01-26T02:45:37.146Z,9.17
2019-01-26T02:48:07.538Z,10.50
2019-01-26T02:50:37.496Z,11.30
2019-01-26T02:53:07.568Z,11.83
2019-01-26T02:55:37.490Z,11.20
2019-01-26T02:58:07.497Z,11.43
2019-01-26T03:00:38.470Z,10.50
2019-01-26T03:03:08.456Z,11.00
2019-01-26T03:05:38.376Z,12.43
2019-01-26T03:08:08.707Z,11.63
2019-01-26T03:10:38.771Z,12.13
2019-01-26T03:13:08.826Z,11.40
2019-01-26T03:15:38.848Z,6.70
2019-01-26T03:18:08.999Z,5.53
2019-01-26T03:20:38.916Z,7.00
2019-01-26T03:23:08.931Z,5.90
2019-01-26T03:25:38.823Z,4.90
2019-01-26T03:28:08.887Z,3.10
2019-01-26T03:30:38.927Z,3.25
2019-01-26T03:33:08.950Z,4.73
2019-01-26T03:35:38.866Z,3.27
2019-01-26T03:38:08.840Z,3.20
2019-01-26T03:40:38.823Z,3.40
2019-01-26T03:43:08.915Z,2.97
2019-01-26T03:45:38.853Z,2.90
2019-01-26T03:48:14.589Z,2.40
2019-01-26T03:50:44.643Z,1.70
2019-01-26T03:53:14.592Z,2.30
2019-01-26T03:55:44.654Z,2.03
2019-01-26T03:58:14.661Z,1.90
2019-01-26T04:00:44.816Z,2.20
2019-01-26T04:03:14.919Z,2.40
2019-01-26T04:05:45.076Z,2.30
2019-01-26T04:08:15.038Z,2.20
2019-01-26T04:10:45.119Z,1.67
2019-01-26T04:13:15.064Z,1.70
2019-01-26T04:15:45.129Z,1.50
2019-01-26T04:18:15.110Z,2.00
2019-01-26T04:20:45.162Z,2.00
2019-01-26T04:23:15.210Z,1.83
2019-01-26T04:25:45.153Z,2.00
2019-01-26T04:28:16.206Z,1.60
2019-01-26T04:30:47.207Z,1.87
2019-01-26T04:33:17.231Z,1.47
2019-01-26T04:35:47.220Z,1.60
2019-01-26T04:38:17.226Z,1.20
2019-01-26T04:40:47.209Z,1.70
2019-01-26T04:43:17.165Z,1.57
2019-01-26T04:45:47.183Z,1.93
2019-01-26T04:48:17.147Z,1.53
2019-01-26T04:50:47.620Z,1.90
2019-01-26T04:53:17.631Z,1.30
2019-01-26T04:55:47.632Z,1.60
2019-01-26T04:58:17.626Z,1.57
2019-01-26T05:00:47.599Z,1.50
2019-01-26T05:03:17.555Z,1.10
2019-01-26T05:05:47.792Z,1.00
2019-01-26T05:08:17.762Z,1.03
2019-01-26T05:10:47.725Z,1.00
2019-01-26T05:13:17.715Z,1.20
2019-01-26T05:15:47.674Z,1.37
2019-01-26T05:18:17.730Z,1.00
2019-01-26T05:20:47.649Z,1.20
2019-01-26T05:23:17.597Z,1.30
2019-01-26T05:25:47.536Z,1.23
2019-01-26T05:28:17.487Z,1.10
2019-01-26T05:30:47.440Z,1.33
2019-01-26T05:33:17.395Z,1.10
2019-01-26T05:35:47.400Z,1.53
2019-01-26T05:38:17.595Z,1.83
2019-01-26T05:40:47.539Z,2.17
2019-01-26T05:43:17.510Z,1.80
2019-01-26T05:45:47.455Z,1.47
2019-01-26T05:48:17.518Z,1.50
2019-01-26T05:50:47.451Z,1.47
2019-01-26T05:53:17.450Z,1.20
2019-01-26T05:55:47.366Z,8.10
2019-01-26T05:58:17.324Z,9.53
2019-01-26T06:00:47.307Z,10.27
2019-01-26T06:03:17.263Z,10.60
2019-01-26T06:05:47.296Z,9.40
2019-01-26T06:08:17.286Z,10.83
2019-01-26T06:10:47.214Z,11.03
2019-01-26T06:13:17.242Z,9.93
2019-01-26T06:15:47.176Z,8.63
2019-01-26T06:18:17.180Z,8.83
2019-01-26T06:20:47.223Z,6.40
2019-01-26T06:23:17.188Z,6.90
2019-01-26T06:25:47.140Z,8.70
2019-01-26T06:28:17.099Z,7.53
2019-01-26T06:30:47.026Z,8.13
2019-01-26T06:33:17.019Z,8.67
2019-01-26T06:35:47.049Z,9.57
2019-01-26T06:38:17.099Z,11.13
2019-01-26T06:40:47.078Z,10.03
2019-01-26T06:43:17.069Z,11.37
2019-01-26T06:45:47.270Z,10.37
2019-01-26T06:48:17.374Z,13.00
2019-01-26T06:50:47.331Z,12.27
2019-01-26T06:53:17.852Z,11.87
2019-01-26T06:55:48.099Z,10.60
2019-01-26T06:58:38.000Z,10.13
2019-01-26T07:01:10.716Z,10.47
2019-01-26T07:03:42.054Z,10.50
2019-01-26T07:06:45.279Z,10.80
2019-01-26T07:09:32.092Z,10.27
2019-01-26T07:12:14.622Z,11.13
2019-01-26T07:14:57.948Z,10.83
2019-01-26T07:17:39.769Z,11.33
2019-01-26T07:20:28.277Z,10.90
2019-01-26T07:23:12.247Z,9.13
2019-01-26T07:25:54.457Z,8.17
2019-01-26T07:28:45.897Z,7.07
2019-01-26T07:31:29.567Z,7.47
2019-01-26T07:34:24.588Z,6.10
2019-01-26T07:37:12.834Z,7.47
2019-01-26T07:39:51.039Z,8.33
2019-01-26T07:42:37.170Z,5.87
2019-01-26T07:45:19.958Z,5.53
2019-01-26T07:48:20.080Z,4.67
2019-01-26T07:51:01.097Z,3.87
2019-01-26T07:53:48.794Z,4.03
2019-01-26T07:56:44.108Z,3.80
2019-01-26T07:59:30.006Z,5.00
2019-01-26T08:02:33.303Z,5.00
2019-01-26T08:05:25.605Z,5.87
2019-01-26T08:10:55.138Z,5.40
2019-01-26T08:13:33.293Z,4.43
2019-01-26T08:16:26.526Z,4.70
2019-01-26T08:31:18.030Z,5.83
2019-01-26T08:37:22.893Z,6.60
2019-01-26T08:42:55.425Z,6.57
2019-01-26T08:45:38.934Z,4.90
2019-01-26T08:48:31.881Z,5.27
2019-01-26T08:51:01.848Z,4.67
2019-01-26T08:53:31.870Z,5.33
2019-01-26T08:56:01.836Z,6.50
2019-01-26T08:58:31.942Z,6.63
2019-01-26T09:01:01.926Z,7.40
2019-01-26T09:03:49.966Z,6.97
2019-01-26T09:06:27.903Z,6.20
2019-01-26T09:08:58.142Z,6.53
2019-01-26T09:11:30.657Z,5.80
2019-01-26T09:14:00.719Z,4.77
2019-01-26T09:16:30.807Z,4.17
2019-01-26T09:19:00.764Z,4.20
2019-01-26T09:21:30.727Z,5.00
2019-01-26T09:24:00.995Z,5.73
2019-01-26T09:26:31.187Z,5.17
2019-01-26T09:29:03.170Z,5.60
2019-01-26T09:31:50.438Z,7.67
2019-01-26T09:34:20.523Z,7.40
2019-01-26T09:36:50.502Z,4.77
2019-01-26T09:39:20.531Z,5.67
2019-01-26T09:41:50.519Z,7.03
2019-01-26T09:44:20.676Z,7.50
2019-01-26T09:46:50.682Z,6.53
2019-01-26T09:49:20.953Z,6.80
2019-01-26T09:51:50.863Z,7.77
2019-01-26T09:54:22.159Z,8.30
2019-01-26T09:57:00.848Z,8.57
2019-01-26T09:59:30.925Z,8.83
2019-01-26T10:02:01.100Z,8.10
2019-01-26T10:04:32.712Z,11.20
2019-01-26T10:07:02.871Z,10.80
2019-01-26T10:09:32.937Z,8.33
2019-01-26T10:12:02.899Z,7.80
2019-01-26T10:14:33.114Z,8.60
2019-01-26T10:17:03.251Z,8.30
2019-01-26T10:19:33.179Z,8.03
2019-01-26T10:22:06.010Z,5.00
2019-01-26T10:24:36.070Z,4.60
2019-01-26T10:27:09.315Z,4.87
2019-01-26T10:29:40.965Z,5.40
2019-01-26T10:32:10.929Z,5.07
2019-01-26T10:34:41.029Z,4.27
2019-01-26T10:37:19.107Z,3.47
2019-01-26T10:39:49.260Z,4.23
2019-01-26T10:42:26.488Z,3.37
2019-01-26T10:44:56.609Z,4.00
2019-01-26T10:47:27.034Z,4.23
2019-01-26T10:49:57.383Z,3.37
2019-01-26T10:52:27.291Z,4.13
2019-01-26T10:54:57.295Z,3.23
2019-01-26T10:57:27.412Z,3.50
2019-01-26T10:59:57.341Z,2.47
2019-01-26T11:02:27.517Z,2.10
2019-01-26T11:04:57.511Z,2.40
2019-01-26T11:07:27.520Z,3.00
2019-01-26T11:09:57.824Z,3.10
2019-01-26T11:12:27.794Z,3.07
2019-01-26T11:14:58.096Z,3.47
2019-01-26T11:17:28.126Z,2.67
2019-01-26T11:19:58.094Z,3.10
2019-01-26T11:22:28.387Z,3.40
2019-01-26T11:24:58.493Z,3.70
2019-01-26T11:27:28.496Z,2.80
2019-01-26T11:29:58.597Z,2.63
2019-01-26T11:32:31.222Z,2.47
2019-01-26T11:35:01.208Z,3.10
2019-01-26T11:37:31.191Z,2.87
2019-01-26T11:40:08.847Z,2.50
2019-01-26T11:42:39.198Z,2.77
2019-01-26T11:45:28.727Z,3.20
2019-01-26T11:47:59.543Z,2.67
2019-01-26T11:50:41.043Z,2.53
2019-01-26T11:53:11.115Z,2.63
2019-01-26T11:56:09.026Z,2.40
2019-01-26T11:58:48.655Z,2.67
2019-01-26T12:01:40.516Z,2.97
2019-01-26T12:04:24.695Z,2.50
2019-01-26T12:07:16.512Z,2.60
2019-01-26T12:09:46.831Z,2.83
2019-01-26T12:12:16.819Z,2.30
2019-01-26T12:14:46.894Z,2.67
2019-01-26T12:17:16.979Z,2.30
2019-01-26T12:19:46.999Z,2.83
2019-01-26T12:22:17.175Z,2.20
2019-01-26T12:24:47.171Z,2.53
2019-01-26T12:27:17.227Z,3.40
2019-01-26T12:29:47.202Z,4.80
2019-01-26T12:32:17.364Z,4.70
2019-01-26T12:34:47.335Z,5.77
2019-01-26T12:37:17.392Z,5.43
2019-01-26T12:39:47.473Z,7.33
2019-01-26T12:42:17.414Z,9.10
2019-01-26T12:44:53.619Z,10.93
2019-01-26T12:47:23.683Z,6.90
2019-01-26T12:49:55.961Z,5.67
2019-01-26T12:52:25.683Z,2.77
2019-01-26T12:54:55.631Z,4.30
2019-01-26T12:57:25.709Z,6.60
2019-01-26T12:59:55.767Z,3.20
2019-01-26T13:02:26.507Z,7.47
2019-01-26T13:04:56.916Z,5.33
2019-01-26T13:07:27.051Z,3.63
2019-01-26T13:09:57.107Z,6.90
2019-01-26T13:12:27.084Z,5.37
2019-01-26T13:14:57.108Z,4.40
2019-01-26T13:17:27.059Z,5.70
2019-01-26T13:19:57.049Z,2.97
2019-01-26T13:22:27.181Z,2.73
2019-01-26T13:24:57.393Z,4.57
2019-01-26T13:27:27.342Z,5.57
2019-01-26T13:29:57.316Z,4.07
2019-01-26T13:32:27.519Z,4.43
2019-01-26T13:34:57.483Z,3.63
2019-01-26T13:37:27.831Z,3.03
2019-01-26T13:39:57.791Z,3.53
2019-01-26T13:42:27.715Z,4.60
2019-01-26T13:44:57.801Z,4.30
2019-01-26T13:47:27.762Z,5.40
2019-01-26T13:49:57.698Z,4.50
2019-01-26T13:52:27.771Z,6.10
2019-01-26T13:54:57.727Z,4.57
2019-01-26T13:57:27.686Z,2.90
2019-01-26T13:59:57.634Z,5.33
2019-01-26T14:02:27.721Z,5.80
2019-01-26T14:04:57.703Z,5.23
2019-01-26T14:07:27.659Z,6.00
2019-01-26T14:09:57.614Z,5.00
2019-01-26T14:12:27.587Z,3.67
2019-01-26T14:14:57.670Z,5.40
2019-01-26T14:17:27.628Z,6.97
2019-01-26T14:19:57.597Z,5.80
2019-01-26T14:22:27.571Z,4.70
2019-01-26T14:24:57.599Z,5.10
2019-01-26T14:27:27.580Z,5.70
2019-01-26T14:29:57.511Z,4.63
2019-01-26T14:32:27.619Z,5.20
2019-01-26T14:34:57.688Z,5.20
2019-01-26T14:37:27.786Z,4.90
2019-01-26T14:39:57.699Z,4.00
2019-01-26T14:42:27.806Z,4.53
2019-01-26T14:44:57.732Z,4.13
2019-01-26T14:47:27.736Z,5.10
2019-01-26T14:49:58.578Z,3.90
2019-01-26T14:52:28.855Z,3.67
2019-01-26T14:54:58.779Z,4.70
2019-01-26T14:57:28.894Z,4.13
2019-01-26T14:59:58.880Z,4.73
2019-01-26T15:02:28.908Z,5.10
2019-01-26T15:04:58.931Z,4.67
2019-01-26T15:07:28.899Z,4.57
2019-01-26T15:09:58.939Z,4.77
2019-01-26T15:12:28.920Z,5.20
2019-01-26T15:14:59.007Z,4.70
2019-01-26T15:17:29.005Z,6.30
2019-01-26T15:20:05.546Z,6.07
2019-01-26T15:22:30.671Z,5.93
2019-01-26T15:25:00.671Z,4.87
2019-01-26T15:27:30.629Z,5.63
2019-01-26T15:30:00.605Z,5.07
2019-01-26T15:32:30.548Z,5.13
2019-01-26T15:35:00.733Z,5.87
2019-01-26T15:37:30.673Z,7.07
2019-01-26T15:40:00.687Z,6.17
2019-01-26T15:42:30.676Z,6.03
2019-01-26T15:45:00.768Z,6.00
2019-01-26T15:47:30.699Z,5.40
2019-01-26T15:50:00.713Z,6.13
2019-01-26T15:52:30.895Z,6.43
2019-01-26T15:55:00.967Z,4.37
2019-01-26T15:57:31.114Z,4.73
2019-01-26T16:00:01.439Z,5.77
2019-01-26T16:02:31.451Z,4.80
2019-01-26T16:05:01.538Z,3.93
2019-01-26T16:07:31.489Z,4.00
2019-01-26T16:10:01.463Z,4.50
2019-01-26T16:12:31.420Z,3.83
2019-01-26T16:15:01.430Z,4.87
2019-01-26T16:17:31.460Z,4.07
2019-01-26T16:20:01.612Z,4.47
2019-01-26T16:22:31.550Z,5.03
2019-01-26T16:25:01.608Z,5.40
2019-01-26T16:27:31.535Z,5.43
2019-01-26T16:30:01.531Z,5.50
2019-01-26T16:32:31.545Z,5.40
2019-01-26T16:35:01.540Z,5.60
2019-01-26T16:37:31.581Z,5.50
2019-01-26T16:40:01.619Z,6.23
2019-01-26T16:42:31.613Z,7.03
2019-01-26T16:45:01.611Z,4.90
2019-01-26T16:47:31.605Z,5.10
2019-01-26T16:50:01.735Z,5.40
2019-01-26T16:52:31.708Z,6.10
2019-01-26T16:55:01.820Z,6.50
2019-01-26T16:57:31.919Z,6.73
2019-01-26T17:00:01.986Z,5.80
2019-01-26T17:02:32.002Z,5.60
2019-01-26T17:05:02.078Z,5.87
2019-01-26T17:07:32.111Z,5.73
2019-01-26T17:10:02.223Z,5.90
2019-01-26T17:12:32.286Z,6.57
2019-01-26T17:15:02.366Z,6.80
2019-01-26T17:17:32.383Z,7.20
2019-01-26T17:20:02.495Z,9.50
2019-01-26T17:22:32.519Z,10.47
2019-01-26T17:25:02.635Z,11.33
2019-01-26T17:27:32.867Z,12.30
2019-01-26T17:30:03.056Z,13.17
2019-01-26T17:32:33.062Z,15.43
2019-01-26T17:35:03.039Z,16.37
2019-01-26T17:37:33.075Z,17.53
2019-01-26T17:40:03.260Z,17.10
2019-01-26T17:42:33.316Z,17.83
2019-01-26T17:45:03.316Z,21.53
2019-01-26T17:47:33.298Z,21.10
2019-01-26T17:50:03.338Z,19.67
2019-01-26T17:52:40.106Z,20.73
2019-01-26T17:55:06.478Z,19.00
2019-01-26T17:57:36.729Z,19.80
2019-01-26T18:00:09.562Z,20.70
2019-01-26T18:02:39.554Z,19.37
2019-01-26T18:05:10.843Z,19.67
2019-01-26T18:07:40.922Z,18.70
2019-01-26T18:10:13.895Z,19.30
2019-01-26T18:12:43.895Z,19.60
2019-01-26T18:15:14.797Z,19.40
2019-01-26T18:17:48.064Z,18.97
2019-01-26T18:20:21.162Z,19.10
2019-01-26T18:22:51.290Z,19.37
2019-01-26T18:25:21.977Z,22.57
2019-01-26T18:27:51.977Z,21.53
2019-01-26T18:30:24.395Z,20.70
2019-01-26T18:32:54.370Z,21.33
2019-01-26T18:35:25.411Z,20.37
2019-01-26T18:37:55.431Z,20.37
2019-01-26T18:40:26.747Z,19.03
2019-01-26T18:42:56.938Z,20.67
2019-01-26T18:45:27.482Z,21.20
2019-01-26T18:47:57.498Z,20.57
2019-01-26T18:50:29.605Z,19.70
2019-01-26T18:52:59.567Z,21.40
2019-01-26T18:55:29.655Z,20.03
2019-01-26T18:57:59.662Z,20.60
2019-01-26T19:00:32.335Z,21.63
2019-01-26T19:03:38.476Z,21.37
2019-01-26T19:06:08.684Z,21.77
2019-01-26T19:08:38.689Z,23.60
2019-01-26T19:11:08.781Z,20.60
2019-01-26T19:13:38.739Z,19.70
2019-01-26T19:16:08.726Z,17.87
2019-01-26T19:18:38.794Z,19.20
2019-01-26T19:21:08.956Z,20.33
2019-01-26T19:23:38.987Z,19.33
2019-01-26T19:26:09.190Z,17.87
2019-01-26T19:28:46.910Z,19.13
2019-01-26T19:31:16.870Z,20.00
2019-01-26T19:33:46.896Z,19.97
2019-01-26T19:36:06.459Z,34.78
2019-01-26T19:38:10.732Z,77.55
2019-01-26T19:39:36.483Z,82.27
2019-01-26T19:41:02.113Z,88.37
2019-01-26T19:42:27.759Z,69.12
2019-01-26T19:43:53.253Z,69.53
2019-01-26T19:45:20.452Z,52.85
2019-01-26T19:46:45.910Z,44.75
2019-01-26T19:48:11.426Z,40.12
2019-01-26T19:49:36.997Z,36.55
2019-01-26T19:51:24.991Z,35.88
2019-01-26T19:52:50.659Z,34.63
2019-01-26T19:54:16.098Z,34.98
2019-01-26T19:55:41.846Z,35.30
2019-01-26T19:57:07.433Z,32.95
2019-01-26T19:58:33.143Z,32.33
2019-01-26T19:59:58.631Z,32.23
2019-01-26T20:01:24.302Z,34.35
2019-01-26T20:02:49.853Z,35.00
2019-01-26T20:04:15.459Z,38.10
2019-01-26T20:05:47.750Z,38.75
2019-01-26T20:07:08.359Z,39.30
2019-01-26T20:08:34.093Z,37.80
2019-01-26T20:09:59.663Z,40.88
2019-01-26T20:11:25.364Z,40.40
2019-01-26T20:12:51.091Z,42.60
2019-01-26T20:14:16.562Z,45.25
2019-01-26T20:15:42.000Z,43.15
2019-01-26T20:17:07.623Z,40.48
2019-01-26T20:18:33.206Z,39.60
2019-01-26T20:20:01.197Z,42.43
2019-01-26T20:21:26.958Z,41.35
2019-01-26T20:22:52.767Z,41.73
2019-01-26T20:24:18.489Z,43.05
2019-01-26T20:25:44.169Z,39.00
2019-01-26T20:27:10.482Z,40.25
2019-01-26T20:28:36.047Z,38.55
2019-01-26T20:30:01.707Z,40.40
2019-01-26T20:31:27.383Z,41.80
2019-01-26T20:32:53.119Z,43.35
2019-01-26T20:34:18.812Z,44.42
2019-01-26T20:35:44.483Z,44.03
2019-01-26T20:37:10.177Z,46.65
2019-01-26T20:38:35.970Z,46.92
2019-01-26T20:40:01.581Z,46.83
2019-01-26T20:41:27.151Z,49.77
2019-01-26T20:42:53.075Z,50.90
2019-01-26T20:44:18.716Z,49.00
2019-01-26T20:45:44.372Z,52.75
2019-01-26T20:47:10.195Z,48.95
2019-01-26T20:48:35.730Z,49.70
2019-01-26T20:50:01.427Z,49.25
2019-01-26T20:51:27.354Z,50.92
2019-01-26T20:52:53.140Z,48.13
2019-01-26T20:54:20.533Z,53.65
2019-01-26T20:55:46.243Z,53.55
2019-01-26T20:57:11.876Z,50.80
2019-01-26T20:58:37.499Z,53.90
2019-01-26T21:00:03.083Z,51.50
2019-01-26T21:01:28.793Z,48.95
2019-01-26T21:02:57.598Z,46.70
2019-01-26T21:04:23.144Z,47.03
2019-01-26T21:05:48.672Z,47.88
2019-01-26T21:07:20.563Z,44.60
2019-01-26T21:08:46.139Z,42.93
2019-01-26T21:10:15.753Z,40.15
2019-01-26T21:11:41.408Z,43.45
2019-01-26T21:13:07.319Z,43.17
2019-01-26T21:14:33.152Z,43.35
2019-01-26T21:15:58.652Z,44.98
2019-01-26T21:17:24.554Z,45.80
2019-01-26T21:18:50.229Z,45.03
2019-01-26T21:20:17.191Z,44.77
2019-01-26T21:21:42.942Z,43.48
2019-01-26T21:23:08.601Z,43.35
2019-01-26T21:24:34.463Z,41.25
2019-01-26T21:26:00.296Z,41.80
2019-01-26T21:27:25.988Z,44.50
2019-01-26T21:28:51.928Z,43.15
2019-01-26T21:30:20.531Z,43.20
2019-01-26T21:31:46.179Z,44.05
2019-01-26T21:33:12.001Z,43.42
2019-01-26T21:34:37.768Z,44.85
2019-01-26T21:36:03.486Z,43.65
2019-01-26T21:37:29.080Z,47.62
2019-01-26T21:38:54.710Z,47.38
2019-01-26T21:40:22.613Z,48.08
2019-01-26T21:41:48.668Z,47.53
2019-01-26T21:43:14.299Z,49.58
2019-01-26T21:44:40.171Z,51.80
2019-01-26T21:46:06.350Z,48.13
2019-01-26T21:47:31.939Z,47.15
2019-01-26T21:48:57.599Z,42.80
2019-01-26T21:50:25.374Z,43.00
2019-01-26T21:51:50.861Z,42.70
2019-01-26T21:53:16.901Z,40.38
2019-01-26T21:54:45.185Z,40.00
2019-01-26T21:56:10.788Z,38.05
2019-01-26T21:57:36.485Z,36.75
2019-01-26T21:59:02.113Z,35.73
2019-01-26T22:00:33.795Z,34.25
2019-01-26T22:01:59.316Z,34.40
2019-01-26T22:03:25.048Z,33.00
2019-01-26T22:04:51.009Z,35.38
2019-01-26T22:06:16.447Z,38.13
2019-01-26T22:07:42.447Z,37.83
2019-01-26T22:09:10.208Z,41.60
2019-01-26T22:10:35.871Z,39.65
2019-01-26T22:12:01.323Z,41.37
2019-01-26T22:13:27.187Z,42.27
2019-01-26T22:14:52.719Z,43.87
2019-01-26T22:16:18.150Z,44.53
2019-01-26T22:17:43.875Z,43.68
2019-01-26T22:19:09.617Z,41.50
2019-01-26T22:20:35.110Z,43.68
2019-01-26T22:22:00.626Z,43.38
2019-01-26T22:23:26.302Z,42.00
2019-01-26T22:24:51.818Z,43.15
2019-01-26T22:26:17.468Z,47.13
2019-01-26T22:27:43.301Z,48.00
2019-01-26T22:29:08.985Z,48.00
2019-01-26T22:30:38.200Z,46.37
2019-01-26T22:32:25.777Z,48.05
2019-01-26T22:33:51.221Z,49.27
2019-01-26T22:35:16.667Z,48.63
2019-01-26T22:36:42.431Z,48.52
2019-01-26T22:38:07.995Z,48.45
2019-01-26T22:39:33.450Z,47.90
2019-01-26T22:40:59.054Z,44.73
2019-01-26T22:42:24.524Z,47.30
2019-01-26T22:43:50.107Z,48.13
2019-01-26T22:45:15.823Z,47.60
2019-01-26T22:46:41.319Z,47.33
2019-01-26T22:48:07.140Z,46.45
2019-01-26T22:49:32.943Z,49.85
2019-01-26T22:50:58.504Z,46.80
2019-01-26T22:52:24.166Z,45.10
2019-01-26T22:53:49.603Z,44.67
2019-01-26T22:55:15.869Z,43.42
2019-01-26T22:56:41.339Z,44.80
2019-01-26T22:58:07.187Z,39.40
2019-01-26T22:59:32.750Z,41.37
2019-01-26T23:01:21.794Z,41.30
2019-01-26T23:02:47.475Z,41.00
2019-01-26T23:04:53.747Z,39.98
2019-01-26T23:06:43.686Z,35.98
2019-01-26T23:08:15.620Z,34.63
2019-01-26T23:10:13.075Z,33.98
2019-01-26T23:12:00.643Z,32.48
2019-01-26T23:13:43.101Z,33.42
2019-01-26T23:15:35.723Z,32.40
2019-01-26T23:17:26.758Z,31.80
2019-01-26T23:19:42.015Z,30.72
2019-01-26T23:21:22.770Z,29.95
2019-01-26T23:23:30.628Z,30.48
2019-01-26T23:25:07.334Z,29.50
2019-01-26T23:26:59.285Z,29.57
2019-01-26T23:28:48.432Z,29.50
2019-01-26T23:31:03.700Z,29.85
2019-01-26T23:32:29.116Z,30.80
2019-01-26T23:33:56.583Z,29.85
2019-01-26T23:35:22.270Z,32.03
2019-01-26T23:36:47.700Z,31.68
2019-01-26T23:38:13.158Z,31.45
2019-01-26T23:39:38.607Z,31.62
2019-01-26T23:41:04.423Z,31.42
2019-01-26T23:42:29.853Z,33.33
2019-01-26T23:43:55.381Z,33.35
2019-01-26T23:45:20.931Z,33.20
2019-01-26T23:46:46.378Z,35.25
2019-01-26T23:48:11.799Z,35.03
2019-01-26T23:49:37.215Z,36.65
2019-01-26T23:51:02.758Z,36.17
2019-01-26T23:52:28.214Z,37.35
2019-01-26T23:53:53.803Z,36.77
2019-01-26T23:55:19.343Z,36.35
2019-01-26T23:56:44.807Z,35.55
2019-01-26T23:58:10.241Z,35.83
2019-01-26T23:59:35.668Z,31.77
